sensor_id;sensor_type;location;lat;lon;timestamp;temperature;humidity
22956;DHT22;40888;48.148;11.526;2024-02-21T00:01:40;4.90;99.90
22956;DHT22;40888;48.148;11.526;2024-02-21T00:04:05;4.90;99.90
22956;DHT22;40888;48.148;11.526;2024-02-21T00:06:31;4.80;99.90
22956;DHT22;40888;48.148;11.526;2024-02-21T00:08:58;4.90;99.90
22956;DHT22;40888;48.148;11.526;2024-02-21T00:11:23;5.00;99.90
22956;DHT22;40888;48.148;11.526;2024-02-21T00:13:49;5.00;99.90
22956;DHT22;40888;48.148;11.526;2024-02-21T00:16:16;4.90;99.90
22956;DHT22;40888;48.148;11.526;2024-02-21T00:18:42;4.90;99.90
22956;DHT22;40888;48.148;11.526;2024-02-21T00:21:08;4.80;99.90
22956;DHT22;40888;48.148;11.526;2024-02-21T00:23:34;4.90;99.90
22956;DHT22;40888;48.148;11.526;2024-02-21T00:25:59;4.90;99.90
22956;DHT22;40888;48.148;11.526;2024-02-21T00:28:25;4.90;99.90
22956;DHT22;40888;48.148;11.526;2024-02-21T00:30:50;4.80;99.90
22956;DHT22;40888;48.148;11.526;2024-02-21T00:33:18;4.90;99.90
22956;DHT22;40888;48.148;11.526;2024-02-21T00:35:44;4.80;99.90
22956;DHT22;40888;48.148;11.526;2024-02-21T00:38:10;4.90;99.90
22956;DHT22;40888;48.148;11.526;2024-02-21T00:40:36;4.90;99.90
22956;DHT22;40888;48.148;11.526;2024-02-21T00:43:02;5.00;99.90
22956;DHT22;40888;48.148;11.526;2024-02-21T00:45:28;4.90;99.90
22956;DHT22;40888;48.148;11.526;2024-02-21T00:47:53;4.90;99.90
22956;DHT22;40888;48.148;11.526;2024-02-21T00:50:19;4.90;99.90
22956;DHT22;40888;48.148;11.526;2024-02-21T00:52:45;4.80;99.90
22956;DHT22;40888;48.148;11.526;2024-02-21T00:55:11;4.90;99.90
22956;DHT22;40888;48.148;11.526;2024-02-21T00:57:36;5.00;99.90
22956;DHT22;40888;48.148;11.526;2024-02-21T01:00:03;5.00;99.90
22956;DHT22;40888;48.148;11.526;2024-02-21T01:02:29;4.90;99.90
22956;DHT22;40888;48.148;11.526;2024-02-21T01:04:57;4.90;99.90
22956;DHT22;40888;48.148;11.526;2024-02-21T01:07:23;5.00;99.90
22956;DHT22;40888;48.148;11.526;2024-02-21T01:09:48;5.00;99.90
22956;DHT22;40888;48.148;11.526;2024-02-21T01:12:16;5.00;99.90
22956;DHT22;40888;48.148;11.526;2024-02-21T01:14:42;4.90;99.90
22956;DHT22;40888;48.148;11.526;2024-02-21T01:17:08;4.90;99.90
22956;DHT22;40888;48.148;11.526;2024-02-21T01:19:34;4.90;99.90
22956;DHT22;40888;48.148;11.526;2024-02-21T01:21:59;5.00;99.90
22956;DHT22;40888;48.148;11.526;2024-02-21T01:24:25;4.90;99.90
22956;DHT22;40888;48.148;11.526;2024-02-21T01:26:51;4.90;99.90
22956;DHT22;40888;48.148;11.526;2024-02-21T01:29:16;5.00;99.90
22956;DHT22;40888;48.148;11.526;2024-02-21T01:31:42;4.90;99.90
22956;DHT22;40888;48.148;11.526;2024-02-21T01:34:08;5.00;99.90
22956;DHT22;40888;48.148;11.526;2024-02-21T01:36:33;4.90;99.90
22956;DHT22;40888;48.148;11.526;2024-02-21T01:38:59;4.90;99.90
22956;DHT22;40888;48.148;11.526;2024-02-21T01:41:25;4.80;99.90
22956;DHT22;40888;48.148;11.526;2024-02-21T01:43:50;4.90;99.90
22956;DHT22;40888;48.148;11.526;2024-02-21T01:46:16;4.90;99.90
22956;DHT22;40888;48.148;11.526;2024-02-21T01:48:42;5.00;99.90
22956;DHT22;40888;48.148;11.526;2024-02-21T01:51:08;5.00;99.90
22956;DHT22;40888;48.148;11.526;2024-02-21T01:53:36;5.00;99.90
22956;DHT22;40888;48.148;11.526;2024-02-21T01:56:04;5.00;99.90
22956;DHT22;40888;48.148;11.526;2024-02-21T01:58:31;4.90;99.90
22956;DHT22;40888;48.148;11.526;2024-02-21T02:00:57;5.00;99.90
22956;DHT22;40888;48.148;11.526;2024-02-21T02:03:23;5.00;99.90
22956;DHT22;40888;48.148;11.526;2024-02-21T02:05:51;5.00;99.90
22956;DHT22;40888;48.148;11.526;2024-02-21T02:08:18;5.00;99.90
22956;DHT22;40888;48.148;11.526;2024-02-21T02:10:44;5.00;99.90
22956;DHT22;40888;48.148;11.526;2024-02-21T02:13:11;4.90;99.90
22956;DHT22;40888;48.148;11.526;2024-02-21T02:15:50;5.00;99.90
22956;DHT22;40888;48.148;11.526;2024-02-21T02:18:16;5.10;99.90
22956;DHT22;40888;48.148;11.526;2024-02-21T02:20:43;5.10;99.90
22956;DHT22;40888;48.148;11.526;2024-02-21T02:23:11;5.10;99.90
22956;DHT22;40888;48.148;11.526;2024-02-21T02:25:38;5.20;99.90
22956;DHT22;40888;48.148;11.526;2024-02-21T02:28:07;5.20;99.90
22956;DHT22;40888;48.148;11.526;2024-02-21T02:30:36;5.20;99.90
22956;DHT22;40888;48.148;11.526;2024-02-21T02:33:03;5.20;99.90
22956;DHT22;40888;48.148;11.526;2024-02-21T02:35:29;5.20;99.90
22956;DHT22;40888;48.148;11.526;2024-02-21T02:37:55;5.20;99.90
22956;DHT22;40888;48.148;11.526;2024-02-21T02:40:20;5.20;99.90
22956;DHT22;40888;48.148;11.526;2024-02-21T02:42:46;5.20;99.90
22956;DHT22;40888;48.148;11.526;2024-02-21T02:45:17;5.10;99.90
22956;DHT22;40888;48.148;11.526;2024-02-21T02:47:46;5.10;99.90
22956;DHT22;40888;48.148;11.526;2024-02-21T02:50:13;5.10;99.90
22956;DHT22;40888;48.148;11.526;2024-02-21T02:52:39;5.10;99.90
22956;DHT22;40888;48.148;11.526;2024-02-21T02:55:05;5.20;99.90
22956;DHT22;40888;48.148;11.526;2024-02-21T02:57:31;5.20;99.90
22956;DHT22;40888;48.148;11.526;2024-02-21T02:59:57;5.20;99.90
22956;DHT22;40888;48.148;11.526;2024-02-21T03:02:23;5.30;99.90
22956;DHT22;40888;48.148;11.526;2024-02-21T03:04:49;5.20;99.90
22956;DHT22;40888;48.148;11.526;2024-02-21T03:07:15;5.20;99.90
22956;DHT22;40888;48.148;11.526;2024-02-21T03:09:41;5.10;99.90
22956;DHT22;40888;48.148;11.526;2024-02-21T03:12:10;5.10;99.90
22956;DHT22;40888;48.148;11.526;2024-02-21T03:14:36;5.10;99.90
22956;DHT22;40888;48.148;11.526;2024-02-21T03:17:02;5.10;99.90
22956;DHT22;40888;48.148;11.526;2024-02-21T03:19:29;5.10;99.90
22956;DHT22;40888;48.148;11.526;2024-02-21T03:21:54;5.10;99.90
22956;DHT22;40888;48.148;11.526;2024-02-21T03:24:20;5.10;99.90
22956;DHT22;40888;48.148;11.526;2024-02-21T03:26:47;5.10;99.90
22956;DHT22;40888;48.148;11.526;2024-02-21T03:29:14;5.10;99.90
22956;DHT22;40888;48.148;11.526;2024-02-21T03:31:40;5.10;99.90
22956;DHT22;40888;48.148;11.526;2024-02-21T03:34:06;5.10;99.90
22956;DHT22;40888;48.148;11.526;2024-02-21T03:36:32;5.10;99.90
22956;DHT22;40888;48.148;11.526;2024-02-21T03:38:57;5.10;99.90
22956;DHT22;40888;48.148;11.526;2024-02-21T03:41:23;5.10;99.90
22956;DHT22;40888;48.148;11.526;2024-02-21T03:43:49;5.10;99.90
22956;DHT22;40888;48.148;11.526;2024-02-21T03:46:14;5.20;99.90
22956;DHT22;40888;48.148;11.526;2024-02-21T03:48:41;5.10;99.90
22956;DHT22;40888;48.148;11.526;2024-02-21T03:51:06;5.10;99.90
22956;DHT22;40888;48.148;11.526;2024-02-21T03:53:33;5.10;99.90
22956;DHT22;40888;48.148;11.526;2024-02-21T03:56:01;5.10;99.90
22956;DHT22;40888;48.148;11.526;2024-02-21T03:58:32;5.10;99.90
22956;DHT22;40888;48.148;11.526;2024-02-21T04:01:00;5.10;99.90
22956;DHT22;40888;48.148;11.526;2024-02-21T04:03:27;5.30;99.90
22956;DHT22;40888;48.148;11.526;2024-02-21T04:05:52;5.10;99.90
22956;DHT22;40888;48.148;11.526;2024-02-21T04:08:18;5.20;99.90
22956;DHT22;40888;48.148;11.526;2024-02-21T04:10:44;5.10;99.90
22956;DHT22;40888;48.148;11.526;2024-02-21T04:13:10;5.00;99.90
22956;DHT22;40888;48.148;11.526;2024-02-21T04:15:35;5.10;99.90
22956;DHT22;40888;48.148;11.526;2024-02-21T04:18:02;5.10;99.90
22956;DHT22;40888;48.148;11.526;2024-02-21T04:20:28;5.10;99.90
22956;DHT22;40888;48.148;11.526;2024-02-21T04:22:54;5.00;99.90
22956;DHT22;40888;48.148;11.526;2024-02-21T04:25:20;5.00;99.90
22956;DHT22;40888;48.148;11.526;2024-02-21T04:27:46;5.00;99.90
22956;DHT22;40888;48.148;11.526;2024-02-21T04:30:12;5.00;99.90
22956;DHT22;40888;48.148;11.526;2024-02-21T04:32:38;5.10;99.90
22956;DHT22;40888;48.148;11.526;2024-02-21T04:35:04;5.00;99.90
22956;DHT22;40888;48.148;11.526;2024-02-21T04:37:30;4.90;99.90
22956;DHT22;40888;48.148;11.526;2024-02-21T04:39:56;4.90;99.90
22956;DHT22;40888;48.148;11.526;2024-02-21T04:42:22;4.90;99.90
22956;DHT22;40888;48.148;11.526;2024-02-21T04:44:47;5.00;99.90
22956;DHT22;40888;48.148;11.526;2024-02-21T04:47:13;4.90;99.90
22956;DHT22;40888;48.148;11.526;2024-02-21T04:49:39;5.00;99.90
22956;DHT22;40888;48.148;11.526;2024-02-21T04:52:05;5.00;99.90
22956;DHT22;40888;48.148;11.526;2024-02-21T04:54:31;5.00;99.90
22956;DHT22;40888;48.148;11.526;2024-02-21T04:56:56;5.00;99.90
22956;DHT22;40888;48.148;11.526;2024-02-21T04:59:22;4.90;99.90
22956;DHT22;40888;48.148;11.526;2024-02-21T05:01:47;4.80;99.90
22956;DHT22;40888;48.148;11.526;2024-02-21T05:04:13;4.80;99.90
22956;DHT22;40888;48.148;11.526;2024-02-21T05:06:42;4.80;99.90
22956;DHT22;40888;48.148;11.526;2024-02-21T05:09:08;4.80;99.90
22956;DHT22;40888;48.148;11.526;2024-02-21T05:11:35;4.80;99.90
22956;DHT22;40888;48.148;11.526;2024-02-21T05:14:00;4.70;99.90
22956;DHT22;40888;48.148;11.526;2024-02-21T05:16:26;4.60;99.90
22956;DHT22;40888;48.148;11.526;2024-02-21T05:18:52;4.70;99.90
22956;DHT22;40888;48.148;11.526;2024-02-21T05:21:17;4.70;99.90
22956;DHT22;40888;48.148;11.526;2024-02-21T05:23:43;4.60;99.90
22956;DHT22;40888;48.148;11.526;2024-02-21T05:26:09;4.60;99.90
22956;DHT22;40888;48.148;11.526;2024-02-21T05:28:34;4.60;99.90
22956;DHT22;40888;48.148;11.526;2024-02-21T05:31:00;4.60;99.90
22956;DHT22;40888;48.148;11.526;2024-02-21T05:33:26;4.60;99.90
22956;DHT22;40888;48.148;11.526;2024-02-21T05:35:52;4.60;99.90
22956;DHT22;40888;48.148;11.526;2024-02-21T05:38:18;4.50;99.90
22956;DHT22;40888;48.148;11.526;2024-02-21T05:40:46;4.50;99.90
22956;DHT22;40888;48.148;11.526;2024-02-21T05:43:12;4.50;99.90
22956;DHT22;40888;48.148;11.526;2024-02-21T05:45:37;4.50;99.90
22956;DHT22;40888;48.148;11.526;2024-02-21T05:48:04;4.60;99.90
22956;DHT22;40888;48.148;11.526;2024-02-21T05:50:30;4.60;99.90
22956;DHT22;40888;48.148;11.526;2024-02-21T05:52:55;4.60;99.90
22956;DHT22;40888;48.148;11.526;2024-02-21T05:55:22;4.50;99.90
22956;DHT22;40888;48.148;11.526;2024-02-21T05:57:48;4.60;99.90
22956;DHT22;40888;48.148;11.526;2024-02-21T06:00:14;4.40;99.90
22956;DHT22;40888;48.148;11.526;2024-02-21T06:02:41;4.30;99.90
22956;DHT22;40888;48.148;11.526;2024-02-21T06:05:07;4.30;99.90
22956;DHT22;40888;48.148;11.526;2024-02-21T06:07:34;4.30;99.90
22956;DHT22;40888;48.148;11.526;2024-02-21T06:10:01;4.20;99.90
22956;DHT22;40888;48.148;11.526;2024-02-21T06:12:27;4.20;99.90
22956;DHT22;40888;48.148;11.526;2024-02-21T06:14:52;4.20;99.90
22956;DHT22;40888;48.148;11.526;2024-02-21T06:17:18;4.20;99.90
22956;DHT22;40888;48.148;11.526;2024-02-21T06:19:44;4.10;99.90
22956;DHT22;40888;48.148;11.526;2024-02-21T06:22:10;4.10;99.90
22956;DHT22;40888;48.148;11.526;2024-02-21T06:24:36;4.10;99.90
22956;DHT22;40888;48.148;11.526;2024-02-21T06:27:05;4.10;99.90
22956;DHT22;40888;48.148;11.526;2024-02-21T06:29:34;4.10;99.90
22956;DHT22;40888;48.148;11.526;2024-02-21T06:32:00;4.30;99.90
22956;DHT22;40888;48.148;11.526;2024-02-21T06:34:26;4.20;99.90
22956;DHT22;40888;48.148;11.526;2024-02-21T06:36:52;4.20;99.90
22956;DHT22;40888;48.148;11.526;2024-02-21T06:39:17;4.20;99.90
22956;DHT22;40888;48.148;11.526;2024-02-21T06:41:43;4.30;99.90
22956;DHT22;40888;48.148;11.526;2024-02-21T06:44:09;4.30;99.90
22956;DHT22;40888;48.148;11.526;2024-02-21T06:46:35;4.30;99.90
22956;DHT22;40888;48.148;11.526;2024-02-21T06:49:01;4.30;99.90
22956;DHT22;40888;48.148;11.526;2024-02-21T06:51:27;4.20;99.90
22956;DHT22;40888;48.148;11.526;2024-02-21T06:53:53;4.30;99.90
22956;DHT22;40888;48.148;11.526;2024-02-21T06:56:19;4.40;99.90
22956;DHT22;40888;48.148;11.526;2024-02-21T06:58:45;4.40;99.90
22956;DHT22;40888;48.148;11.526;2024-02-21T07:01:11;4.50;99.90
22956;DHT22;40888;48.148;11.526;2024-02-21T07:03:37;4.50;99.90
22956;DHT22;40888;48.148;11.526;2024-02-21T07:06:02;4.50;99.90
22956;DHT22;40888;48.148;11.526;2024-02-21T07:08:28;4.60;99.90
22956;DHT22;40888;48.148;11.526;2024-02-21T07:10:54;4.70;99.90
22956;DHT22;40888;48.148;11.526;2024-02-21T07:13:20;4.60;99.90
22956;DHT22;40888;48.148;11.526;2024-02-21T07:15:47;4.60;99.90
22956;DHT22;40888;48.148;11.526;2024-02-21T07:18:13;4.80;99.90
22956;DHT22;40888;48.148;11.526;2024-02-21T07:20:39;4.80;99.90
22956;DHT22;40888;48.148;11.526;2024-02-21T07:23:07;4.90;99.90
22956;DHT22;40888;48.148;11.526;2024-02-21T07:25:32;4.90;99.90
22956;DHT22;40888;48.148;11.526;2024-02-21T07:27:58;5.10;99.90
22956;DHT22;40888;48.148;11.526;2024-02-21T07:30:24;4.90;99.90
22956;DHT22;40888;48.148;11.526;2024-02-21T07:32:50;5.10;99.90
22956;DHT22;40888;48.148;11.526;2024-02-21T07:35:17;5.10;99.90
22956;DHT22;40888;48.148;11.526;2024-02-21T07:37:42;5.10;99.90
22956;DHT22;40888;48.148;11.526;2024-02-21T07:40:15;5.10;99.90
22956;DHT22;40888;48.148;11.526;2024-02-21T07:42:41;5.00;99.90
22956;DHT22;40888;48.148;11.526;2024-02-21T07:45:08;5.10;99.90
22956;DHT22;40888;48.148;11.526;2024-02-21T07:47:34;5.30;99.90
22956;DHT22;40888;48.148;11.526;2024-02-21T07:50:00;5.30;99.90
22956;DHT22;40888;48.148;11.526;2024-02-21T07:52:26;5.50;99.90
22956;DHT22;40888;48.148;11.526;2024-02-21T07:54:51;5.80;99.90
22956;DHT22;40888;48.148;11.526;2024-02-21T07:57:17;6.10;99.90
22956;DHT22;40888;48.148;11.526;2024-02-21T07:59:43;6.60;99.90
22956;DHT22;40888;48.148;11.526;2024-02-21T08:02:09;7.20;99.90
22956;DHT22;40888;48.148;11.526;2024-02-21T08:04:34;7.40;99.90
22956;DHT22;40888;48.148;11.526;2024-02-21T08:07:00;7.20;99.90
22956;DHT22;40888;48.148;11.526;2024-02-21T08:09:30;7.00;99.90
22956;DHT22;40888;48.148;11.526;2024-02-21T08:11:55;8.20;99.80
22956;DHT22;40888;48.148;11.526;2024-02-21T08:14:22;10.20;86.60
22956;DHT22;40888;48.148;11.526;2024-02-21T08:16:48;12.00;71.70
22956;DHT22;40888;48.148;11.526;2024-02-21T08:19:13;13.00;61.10
22956;DHT22;40888;48.148;11.526;2024-02-21T08:21:39;13.80;58.20
22956;DHT22;40888;48.148;11.526;2024-02-21T08:24:05;14.40;54.30
22956;DHT22;40888;48.148;11.526;2024-02-21T08:26:31;15.00;51.70
22956;DHT22;40888;48.148;11.526;2024-02-21T08:28:59;15.50;49.90
22956;DHT22;40888;48.148;11.526;2024-02-21T08:31:26;16.10;48.50
22956;DHT22;40888;48.148;11.526;2024-02-21T08:34:05;16.20;46.00
22956;DHT22;40888;48.148;11.526;2024-02-21T08:36:35;16.30;45.40
22956;DHT22;40888;48.148;11.526;2024-02-21T08:39:02;16.70;47.00
22956;DHT22;40888;48.148;11.526;2024-02-21T08:41:33;18.30;44.00
22956;DHT22;40888;48.148;11.526;2024-02-21T08:44:00;18.60;40.30
22956;DHT22;40888;48.148;11.526;2024-02-21T08:46:26;18.00;40.10
22956;DHT22;40888;48.148;11.526;2024-02-21T08:48:52;19.00;39.10
22956;DHT22;40888;48.148;11.526;2024-02-21T08:51:18;19.30;38.50
22956;DHT22;40888;48.148;11.526;2024-02-21T08:53:48;19.90;38.80
22956;DHT22;40888;48.148;11.526;2024-02-21T08:56:13;20.70;37.70
22956;DHT22;40888;48.148;11.526;2024-02-21T08:58:40;21.80;35.90
22956;DHT22;40888;48.148;11.526;2024-02-21T09:01:06;22.00;34.10
22956;DHT22;40888;48.148;11.526;2024-02-21T09:03:39;22.50;33.50
22956;DHT22;40888;48.148;11.526;2024-02-21T09:06:05;22.40;33.20
22956;DHT22;40888;48.148;11.526;2024-02-21T09:08:32;22.60;32.20
22956;DHT22;40888;48.148;11.526;2024-02-21T09:10:57;22.90;32.30
22956;DHT22;40888;48.148;11.526;2024-02-21T09:13:23;22.90;30.30
22956;DHT22;40888;48.148;11.526;2024-02-21T09:15:49;23.10;30.70
22956;DHT22;40888;48.148;11.526;2024-02-21T09:18:15;23.50;30.40
22956;DHT22;40888;48.148;11.526;2024-02-21T09:20:42;24.60;29.90
22956;DHT22;40888;48.148;11.526;2024-02-21T09:23:08;25.40;29.10
22956;DHT22;40888;48.148;11.526;2024-02-21T09:25:33;25.30;28.00
22956;DHT22;40888;48.148;11.526;2024-02-21T09:28:01;26.40;27.60
22956;DHT22;40888;48.148;11.526;2024-02-21T09:30:27;26.20;26.40
22956;DHT22;40888;48.148;11.526;2024-02-21T09:32:53;26.90;26.90
22956;DHT22;40888;48.148;11.526;2024-02-21T09:35:19;26.20;25.00
22956;DHT22;40888;48.148;11.526;2024-02-21T09:37:44;26.00;25.50
22956;DHT22;40888;48.148;11.526;2024-02-21T09:40:11;25.70;26.40
22956;DHT22;40888;48.148;11.526;2024-02-21T09:42:39;24.50;27.20
22956;DHT22;40888;48.148;11.526;2024-02-21T09:47:50;24.60;26.20
22956;DHT22;40888;48.148;11.526;2024-02-21T09:50:19;25.10;27.20
22956;DHT22;40888;48.148;11.526;2024-02-21T09:52:48;25.40;26.50
22956;DHT22;40888;48.148;11.526;2024-02-21T09:55:15;24.00;26.30
22956;DHT22;40888;48.148;11.526;2024-02-21T09:57:41;23.20;28.00
22956;DHT22;40888;48.148;11.526;2024-02-21T10:00:09;21.50;29.60
22956;DHT22;40888;48.148;11.526;2024-02-21T10:02:35;20.80;31.80
22956;DHT22;40888;48.148;11.526;2024-02-21T10:05:02;20.40;32.10
22956;DHT22;40888;48.148;11.526;2024-02-21T10:07:30;19.40;34.50
22956;DHT22;40888;48.148;11.526;2024-02-21T10:10:02;19.60;33.60
22956;DHT22;40888;48.148;11.526;2024-02-21T10:12:28;19.30;34.40
22956;DHT22;40888;48.148;11.526;2024-02-21T10:15:03;18.80;35.30
22956;DHT22;40888;48.148;11.526;2024-02-21T10:17:29;18.70;36.20
22956;DHT22;40888;48.148;11.526;2024-02-21T10:19:54;19.00;35.90
22956;DHT22;40888;48.148;11.526;2024-02-21T10:22:20;18.80;36.20
22956;DHT22;40888;48.148;11.526;2024-02-21T10:24:46;18.60;36.30
22956;DHT22;40888;48.148;11.526;2024-02-21T10:27:12;18.40;36.20
22956;DHT22;40888;48.148;11.526;2024-02-21T10:29:38;18.50;36.30
22956;DHT22;40888;48.148;11.526;2024-02-21T10:32:14;18.30;36.90
22956;DHT22;40888;48.148;11.526;2024-02-21T10:34:41;18.60;36.80
22956;DHT22;40888;48.148;11.526;2024-02-21T10:37:09;18.10;36.00
22956;DHT22;40888;48.148;11.526;2024-02-21T10:39:37;17.60;37.80
22956;DHT22;40888;48.148;11.526;2024-02-21T10:42:03;17.30;38.70
22956;DHT22;40888;48.148;11.526;2024-02-21T10:44:31;16.90;39.50
22956;DHT22;40888;48.148;11.526;2024-02-21T10:46:57;17.10;39.00
22956;DHT22;40888;48.148;11.526;2024-02-21T10:49:24;17.10;38.60
22956;DHT22;40888;48.148;11.526;2024-02-21T10:51:59;16.50;39.00
22956;DHT22;40888;48.148;11.526;2024-02-21T10:57:00;16.90;38.70
22956;DHT22;40888;48.148;11.526;2024-02-21T10:59:28;16.70;39.50
22956;DHT22;40888;48.148;11.526;2024-02-21T11:01:55;16.30;39.40
22956;DHT22;40888;48.148;11.526;2024-02-21T11:04:21;16.20;39.60
22956;DHT22;40888;48.148;11.526;2024-02-21T11:06:47;16.10;38.80
22956;DHT22;40888;48.148;11.526;2024-02-21T11:09:14;16.20;39.70
22956;DHT22;40888;48.148;11.526;2024-02-21T11:11:40;16.40;39.00
22956;DHT22;40888;48.148;11.526;2024-02-21T11:14:08;15.90;39.30
22956;DHT22;40888;48.148;11.526;2024-02-21T11:16:41;15.90;38.50
22956;DHT22;40888;48.148;11.526;2024-02-21T11:19:29;15.60;38.10
22956;DHT22;40888;48.148;11.526;2024-02-21T11:21:55;16.00;38.20
22956;DHT22;40888;48.148;11.526;2024-02-21T11:24:32;16.00;38.60
22956;DHT22;40888;48.148;11.526;2024-02-21T11:27:13;16.10;36.80
22956;DHT22;40888;48.148;11.526;2024-02-21T11:29:46;15.80;37.00
22956;DHT22;40888;48.148;11.526;2024-02-21T11:32:16;15.60;36.20
22956;DHT22;40888;48.148;11.526;2024-02-21T11:35:00;15.60;36.40
22956;DHT22;40888;48.148;11.526;2024-02-21T11:37:31;15.50;37.20
22956;DHT22;40888;48.148;11.526;2024-02-21T11:40:02;15.50;37.20
22956;DHT22;40888;48.148;11.526;2024-02-21T11:42:29;15.40;38.60
22956;DHT22;40888;48.148;11.526;2024-02-21T11:44:56;15.00;37.80
22956;DHT22;40888;48.148;11.526;2024-02-21T11:47:22;15.00;38.00
22956;DHT22;40888;48.148;11.526;2024-02-21T11:49:49;15.20;38.50
22956;DHT22;40888;48.148;11.526;2024-02-21T11:52:22;15.10;38.50
22956;DHT22;40888;48.148;11.526;2024-02-21T11:54:51;15.10;38.90
22956;DHT22;40888;48.148;11.526;2024-02-21T11:57:17;15.20;37.80
22956;DHT22;40888;48.148;11.526;2024-02-21T11:59:44;15.20;38.00
22956;DHT22;40888;48.148;11.526;2024-02-21T12:02:12;15.10;38.30
22956;DHT22;40888;48.148;11.526;2024-02-21T12:04:38;15.20;37.80
22956;DHT22;40888;48.148;11.526;2024-02-21T12:07:04;15.20;37.20
22956;DHT22;40888;48.148;11.526;2024-02-21T12:09:30;15.40;37.80
22956;DHT22;40888;48.148;11.526;2024-02-21T12:12:06;15.50;37.70
22956;DHT22;40888;48.148;11.526;2024-02-21T12:14:33;15.40;37.60
22956;DHT22;40888;48.148;11.526;2024-02-21T12:17:00;15.50;36.20
22956;DHT22;40888;48.148;11.526;2024-02-21T12:19:29;15.50;35.40
22956;DHT22;40888;48.148;11.526;2024-02-21T12:21:54;15.70;35.50
22956;DHT22;40888;48.148;11.526;2024-02-21T12:24:27;15.80;35.70
22956;DHT22;40888;48.148;11.526;2024-02-21T12:26:54;15.70;35.10
22956;DHT22;40888;48.148;11.526;2024-02-21T12:29:21;16.10;35.00
22956;DHT22;40888;48.148;11.526;2024-02-21T12:31:47;16.30;35.00
22956;DHT22;40888;48.148;11.526;2024-02-21T12:34:13;16.60;34.30
22956;DHT22;40888;48.148;11.526;2024-02-21T12:36:44;16.80;32.50
22956;DHT22;40888;48.148;11.526;2024-02-21T12:39:10;16.50;32.30
22956;DHT22;40888;48.148;11.526;2024-02-21T12:41:37;16.00;32.40
22956;DHT22;40888;48.148;11.526;2024-02-21T12:44:07;15.90;31.90
22956;DHT22;40888;48.148;11.526;2024-02-21T12:46:34;15.70;33.50
22956;DHT22;40888;48.148;11.526;2024-02-21T12:49:00;15.90;33.80
22956;DHT22;40888;48.148;11.526;2024-02-21T12:51:26;15.90;32.40
22956;DHT22;40888;48.148;11.526;2024-02-21T12:53:51;15.90;32.40
22956;DHT22;40888;48.148;11.526;2024-02-21T12:56:17;15.90;32.70
22956;DHT22;40888;48.148;11.526;2024-02-21T12:58:43;15.90;33.20
22956;DHT22;40888;48.148;11.526;2024-02-21T13:01:09;15.80;33.20
22956;DHT22;40888;48.148;11.526;2024-02-21T13:03:34;15.80;33.40
22956;DHT22;40888;48.148;11.526;2024-02-21T13:06:00;15.80;33.10
22956;DHT22;40888;48.148;11.526;2024-02-21T13:08:25;16.00;33.00
22956;DHT22;40888;48.148;11.526;2024-02-21T13:10:51;16.10;33.20
22956;DHT22;40888;48.148;11.526;2024-02-21T13:13:17;16.10;33.50
22956;DHT22;40888;48.148;11.526;2024-02-21T13:15:42;15.90;34.50
22956;DHT22;40888;48.148;11.526;2024-02-21T13:18:09;15.70;32.50
22956;DHT22;40888;48.148;11.526;2024-02-21T13:20:35;15.40;33.30
22956;DHT22;40888;48.148;11.526;2024-02-21T13:23:01;15.20;34.40
22956;DHT22;40888;48.148;11.526;2024-02-21T13:25:27;15.20;34.30
22956;DHT22;40888;48.148;11.526;2024-02-21T13:27:53;15.30;33.60
22956;DHT22;40888;48.148;11.526;2024-02-21T13:30:19;15.00;34.40
22956;DHT22;40888;48.148;11.526;2024-02-21T13:32:44;15.10;35.00
22956;DHT22;40888;48.148;11.526;2024-02-21T13:35:13;15.30;34.50
22956;DHT22;40888;48.148;11.526;2024-02-21T13:37:40;15.30;34.50
22956;DHT22;40888;48.148;11.526;2024-02-21T13:40:06;15.10;34.50
22956;DHT22;40888;48.148;11.526;2024-02-21T13:42:34;15.00;34.80
22956;DHT22;40888;48.148;11.526;2024-02-21T13:45:00;14.90;35.70
22956;DHT22;40888;48.148;11.526;2024-02-21T13:47:27;15.10;36.20
22956;DHT22;40888;48.148;11.526;2024-02-21T13:49:52;15.10;35.50
22956;DHT22;40888;48.148;11.526;2024-02-21T13:52:18;15.10;35.10
22956;DHT22;40888;48.148;11.526;2024-02-21T13:54:47;15.10;35.30
22956;DHT22;40888;48.148;11.526;2024-02-21T13:57:12;15.10;35.40
22956;DHT22;40888;48.148;11.526;2024-02-21T13:59:39;15.00;35.80
22956;DHT22;40888;48.148;11.526;2024-02-21T14:02:05;14.80;35.80
22956;DHT22;40888;48.148;11.526;2024-02-21T14:04:33;14.80;35.90
22956;DHT22;40888;48.148;11.526;2024-02-21T14:06:59;14.90;35.80
22956;DHT22;40888;48.148;11.526;2024-02-21T14:09:26;15.00;36.20
22956;DHT22;40888;48.148;11.526;2024-02-21T14:11:52;15.00;36.70
22956;DHT22;40888;48.148;11.526;2024-02-21T14:14:17;14.90;36.90
22956;DHT22;40888;48.148;11.526;2024-02-21T14:16:43;15.00;36.60
22956;DHT22;40888;48.148;11.526;2024-02-21T14:19:08;15.10;36.50
22956;DHT22;40888;48.148;11.526;2024-02-21T14:21:35;15.00;36.30
22956;DHT22;40888;48.148;11.526;2024-02-21T14:24:05;14.90;36.60
22956;DHT22;40888;48.148;11.526;2024-02-21T14:26:30;14.80;37.20
22956;DHT22;40888;48.148;11.526;2024-02-21T14:28:59;14.70;36.90
22956;DHT22;40888;48.148;11.526;2024-02-21T14:31:25;14.60;37.20
22956;DHT22;40888;48.148;11.526;2024-02-21T14:33:51;14.60;37.30
22956;DHT22;40888;48.148;11.526;2024-02-21T14:36:17;14.80;37.20
22956;DHT22;40888;48.148;11.526;2024-02-21T14:38:44;14.90;37.30
22956;DHT22;40888;48.148;11.526;2024-02-21T14:41:10;15.00;36.40
22956;DHT22;40888;48.148;11.526;2024-02-21T14:43:39;15.10;36.30
22956;DHT22;40888;48.148;11.526;2024-02-21T14:46:04;15.20;35.70
22956;DHT22;40888;48.148;11.526;2024-02-21T14:48:31;15.20;35.80
22956;DHT22;40888;48.148;11.526;2024-02-21T14:51:00;15.00;36.30
22956;DHT22;40888;48.148;11.526;2024-02-21T14:53:26;15.00;36.40
22956;DHT22;40888;48.148;11.526;2024-02-21T14:55:52;15.00;37.10
22956;DHT22;40888;48.148;11.526;2024-02-21T14:58:18;15.00;37.20
22956;DHT22;40888;48.148;11.526;2024-02-21T15:00:45;15.00;37.20
22956;DHT22;40888;48.148;11.526;2024-02-21T15:03:12;15.00;38.10
22956;DHT22;40888;48.148;11.526;2024-02-21T15:05:41;15.10;36.20
22956;DHT22;40888;48.148;11.526;2024-02-21T15:08:07;14.70;36.80
22956;DHT22;40888;48.148;11.526;2024-02-21T15:10:36;14.70;36.90
22956;DHT22;40888;48.148;11.526;2024-02-21T15:13:02;14.60;37.60
22956;DHT22;40888;48.148;11.526;2024-02-21T15:15:28;14.50;38.30
22956;DHT22;40888;48.148;11.526;2024-02-21T15:17:54;14.40;38.40
22956;DHT22;40888;48.148;11.526;2024-02-21T15:20:19;14.30;38.60
22956;DHT22;40888;48.148;11.526;2024-02-21T15:22:45;14.20;38.50
22956;DHT22;40888;48.148;11.526;2024-02-21T15:25:11;14.10;38.90
22956;DHT22;40888;48.148;11.526;2024-02-21T15:27:44;14.00;39.40